createdAt,value
2022-12-13T00:00:19.319Z,94.77
2022-12-13T00:01:17.439Z,94.77
2022-12-13T00:02:14.097Z,94.26
2022-12-13T00:03:10.800Z,94.50
2022-12-13T00:04:08.530Z,94.90
2022-12-13T00:05:05.591Z,94.30
2022-12-13T00:06:05.476Z,94.67
2022-12-13T00:07:02.254Z,94.38
2022-12-13T00:08:00.062Z,94.63
2022-12-13T00:08:57.329Z,94.70
2022-12-13T00:09:53.955Z,95.13
2022-12-13T00:11:00.255Z,95.44
2022-12-13T00:11:56.985Z,95.40
2022-12-13T00:12:53.620Z,95.78
2022-12-13T00:13:50.277Z,96.14
2022-12-13T00:14:46.862Z,95.88
2022-12-13T00:15:43.502Z,95.74
2022-12-13T00:16:40.736Z,95.61
2022-12-13T00:17:37.709Z,95.81
2022-12-13T00:18:34.983Z,95.55
2022-12-13T00:19:31.565Z,95.70
2022-12-13T00:20:28.171Z,95.80
2022-12-13T00:21:30.288Z,95.50
2022-12-13T00:22:26.940Z,95.73
2022-12-13T00:23:24.344Z,95.43
2022-12-13T00:24:21.058Z,95.95
2022-12-13T00:25:19.902Z,95.61
2022-12-13T00:26:19.578Z,95.82
2022-12-13T00:27:16.127Z,95.60
2022-12-13T00:28:12.811Z,95.23
2022-12-13T00:29:11.261Z,94.86
2022-12-13T00:30:08.413Z,94.72
2022-12-13T00:31:43.156Z,95.17
2022-12-13T00:32:21.799Z,95.07
2022-12-13T00:33:18.497Z,95.16
2022-12-13T00:34:15.154Z,95.42
2022-12-13T00:35:11.836Z,94.84
2022-12-13T00:36:08.900Z,94.52
2022-12-13T00:37:05.490Z,94.31
2022-12-13T00:38:02.123Z,94.44
2022-12-13T00:39:01.744Z,94.28
2022-12-13T00:39:58.392Z,94.37
2022-12-13T00:40:54.955Z,93.95
2022-12-13T00:41:51.765Z,94.08
2022-12-13T00:42:49.146Z,94.00
2022-12-13T00:43:46.329Z,94.14
2022-12-13T00:44:42.948Z,93.75
2022-12-13T00:45:39.985Z,93.78
2022-12-13T00:46:36.639Z,93.40
2022-12-13T00:47:33.341Z,93.05
2022-12-13T00:48:30.200Z,93.36
2022-12-13T00:49:26.798Z,93.52
2022-12-13T00:50:23.424Z,93.96
2022-12-13T00:51:21.027Z,93.67
2022-12-13T00:52:17.595Z,94.03
2022-12-13T00:53:14.183Z,94.43
2022-12-13T00:54:11.323Z,94.46
2022-12-13T00:55:08.391Z,94.15
2022-12-13T00:56:09.964Z,93.77
2022-12-13T00:57:06.576Z,93.44
2022-12-13T00:58:03.229Z,93.80
2022-12-13T00:59:00.326Z,94.28
2022-12-13T00:59:57.018Z,93.92
2022-12-13T01:00:53.591Z,93.97
2022-12-13T01:01:50.257Z,93.91
2022-12-13T01:02:47.162Z,94.06
2022-12-13T01:03:44.045Z,93.86
2022-12-13T01:04:40.648Z,93.87
2022-12-13T01:06:13.289Z,94.10
2022-12-13T01:06:55.160Z,94.49
2022-12-13T01:07:51.904Z,94.73
2022-12-13T01:08:49.420Z,94.96
2022-12-13T01:09:46.020Z,95.01
2022-12-13T01:10:47.098Z,95.34
2022-12-13T01:11:44.832Z,95.71
2022-12-13T01:12:41.480Z,95.87
2022-12-13T01:13:39.243Z,95.75
2022-12-13T01:14:37.225Z,96.16
2022-12-13T01:15:33.853Z,95.81
2022-12-13T01:16:30.590Z,95.72
2022-12-13T01:17:27.571Z,95.41
2022-12-13T01:18:24.314Z,95.77
2022-12-13T01:19:22.415Z,95.77
2022-12-13T01:20:19.054Z,95.77
2022-12-13T01:21:18.286Z,95.25
2022-12-13T01:22:15.019Z,95.24
2022-12-13T01:23:11.939Z,95.40
2022-12-13T01:24:08.659Z,95.34
2022-12-13T01:25:05.529Z,95.25
2022-12-13T01:26:04.533Z,95.34
2022-12-13T01:27:01.216Z,95.27
2022-12-13T01:27:57.775Z,95.74
2022-12-13T01:28:54.372Z,95.61
2022-12-13T01:29:51.021Z,95.66
2022-12-13T01:30:56.698Z,95.47
2022-12-13T01:31:54.294Z,95.71
2022-12-13T01:32:51.027Z,95.65
2022-12-13T01:33:48.601Z,95.90
2022-12-13T01:34:45.154Z,95.91
2022-12-13T01:35:41.837Z,96.29
2022-12-13T01:36:43.384Z,96.42
2022-12-13T01:37:39.976Z,95.90
2022-12-13T01:38:37.869Z,96.44
2022-12-13T01:39:38.228Z,96.27
2022-12-13T01:40:38.786Z,96.07
2022-12-13T01:41:36.031Z,96.12
2022-12-13T01:42:32.682Z,96.02
2022-12-13T01:43:49.272Z,95.93
2022-12-13T01:45:04.067Z,95.41
2022-12-13T01:46:00.768Z,95.39
2022-12-13T01:46:57.487Z,95.56
2022-12-13T01:48:02.476Z,95.50
2022-12-13T01:49:04.842Z,95.21
2022-12-13T01:50:03.091Z,95.31
2022-12-13T01:51:03.877Z,95.47
2022-12-13T01:52:05.287Z,95.57
2022-12-13T01:53:05.364Z,95.74
2022-12-13T01:54:05.140Z,95.30
2022-12-13T01:55:05.118Z,95.53
2022-12-13T01:56:06.965Z,95.29
2022-12-13T01:57:06.924Z,95.52
2022-12-13T01:58:05.899Z,95.75
2022-12-13T01:59:02.984Z,95.77
2022-12-13T01:59:59.955Z,95.82
2022-12-13T02:00:59.184Z,95.79
2022-12-13T02:02:00.939Z,95.74
2022-12-13T02:02:59.927Z,95.52
2022-12-13T02:03:56.577Z,95.81
2022-12-13T02:04:58.479Z,95.35
2022-12-13T02:06:19.678Z,95.52
2022-12-13T02:07:23.185Z,95.18
2022-12-13T02:08:21.349Z,95.13
2022-12-13T02:09:18.820Z,94.86
2022-12-13T02:10:15.540Z,94.87
2022-12-13T02:11:13.020Z,94.42
2022-12-13T02:12:11.379Z,94.07
2022-12-13T02:13:08.003Z,94.05
2022-12-13T02:14:05.636Z,93.94
2022-12-13T02:15:07.985Z,92.89
2022-12-13T02:16:28.226Z,92.54
2022-12-13T02:17:44.722Z,92.90
2022-12-13T02:19:10.328Z,92.57
2022-12-13T02:20:25.643Z,92.34
2022-12-13T02:21:48.757Z,92.18
2022-12-13T02:23:11.689Z,92.01
2022-12-13T02:24:32.699Z,92.71
2022-12-13T02:25:35.082Z,92.83
2022-12-13T02:26:34.316Z,93.19
2022-12-13T02:28:30.851Z,93.15
2022-12-13T02:30:00.904Z,92.79
2022-12-13T02:31:07.962Z,92.96
2022-12-13T02:32:28.869Z,93.13
2022-12-13T02:33:50.439Z,92.79
2022-12-13T02:34:50.088Z,92.57
2022-12-13T02:36:12.723Z,92.78
2022-12-13T02:37:25.590Z,92.38
2022-12-13T02:38:55.498Z,92.59
2022-12-13T02:40:05.370Z,92.31
2022-12-13T02:41:24.256Z,92.45
2022-12-13T02:42:49.508Z,92.68
2022-12-13T02:44:22.363Z,93.04
2022-12-13T02:45:36.817Z,93.30
2022-12-13T02:46:39.785Z,93.08
2022-12-13T02:47:41.584Z,93.80
2022-12-13T02:48:40.857Z,93.94
2022-12-13T02:49:42.429Z,93.69
2022-12-13T02:50:40.497Z,94.57
2022-12-13T02:51:39.307Z,94.41
2022-12-13T02:52:36.772Z,94.48
2022-12-13T02:53:34.859Z,94.49
2022-12-13T02:54:31.561Z,94.39
2022-12-13T02:55:28.959Z,94.36
2022-12-13T02:56:25.531Z,93.70
2022-12-13T02:57:30.008Z,93.45
2022-12-13T02:58:31.116Z,92.99
2022-12-13T02:59:35.805Z,93.11
2022-12-13T03:00:59.228Z,93.40
2022-12-13T03:02:14.457Z,93.67
2022-12-13T03:03:30.473Z,93.74
2022-12-13T03:04:36.419Z,93.54
2022-12-13T03:05:51.460Z,92.84
2022-12-13T03:07:00.444Z,92.60
2022-12-13T03:08:38.830Z,93.19
2022-12-13T03:09:50.472Z,93.27
2022-12-13T03:10:55.081Z,92.20
2022-12-13T03:12:32.487Z,92.58
2022-12-13T03:13:42.978Z,92.87
2022-12-13T03:14:46.827Z,92.70
2022-12-13T03:16:14.656Z,92.36
2022-12-13T03:17:21.650Z,93.04
2022-12-13T03:18:22.185Z,93.55
2022-12-13T03:19:19.491Z,93.84
2022-12-13T03:20:24.548Z,94.05
2022-12-13T03:21:21.219Z,93.99
2022-12-13T03:22:17.893Z,93.80
2022-12-13T03:23:16.315Z,93.61
2022-12-13T03:24:13.659Z,93.57
2022-12-13T03:25:10.246Z,93.28
2022-12-13T03:26:12.910Z,93.28
2022-12-13T03:27:09.485Z,92.73
2022-12-13T03:28:06.087Z,93.61
2022-12-13T03:29:02.789Z,93.69
2022-12-13T03:30:00.218Z,93.49
2022-12-13T03:30:56.929Z,93.44
2022-12-13T03:31:54.353Z,93.79
2022-12-13T03:32:50.943Z,93.94
2022-12-13T03:33:48.232Z,93.78
2022-12-13T03:34:47.588Z,94.20
2022-12-13T03:35:46.594Z,93.69
2022-12-13T03:36:43.337Z,94.16
2022-12-13T03:37:39.953Z,94.21
2022-12-13T03:38:38.191Z,93.94
2022-12-13T03:39:35.372Z,94.07
2022-12-13T03:40:34.280Z,94.41
2022-12-13T03:41:34.053Z,94.22
2022-12-13T03:42:30.819Z,94.52
2022-12-13T03:43:28.770Z,94.07
2022-12-13T03:44:25.462Z,94.10
2022-12-13T03:45:28.301Z,93.90
2022-12-13T03:46:25.002Z,93.63
2022-12-13T03:47:21.697Z,93.69
2022-12-13T03:48:22.203Z,93.75
2022-12-13T03:49:19.887Z,94.18
2022-12-13T03:50:25.798Z,93.62
2022-12-13T03:51:24.017Z,93.53
2022-12-13T03:52:20.680Z,94.21
2022-12-13T03:53:22.869Z,93.58
2022-12-13T03:54:29.547Z,93.82
2022-12-13T03:55:26.846Z,94.30
2022-12-13T03:56:23.553Z,93.66
2022-12-13T03:57:20.187Z,93.37
2022-12-13T03:58:16.871Z,93.09
2022-12-13T03:59:13.486Z,92.45
2022-12-13T04:00:10.684Z,92.28
2022-12-13T04:01:10.216Z,92.41
2022-12-13T04:02:06.908Z,92.08
2022-12-13T04:03:03.690Z,91.63
2022-12-13T04:04:00.430Z,91.69
2022-12-13T04:04:57.069Z,91.95
2022-12-13T04:05:57.379Z,92.18
2022-12-13T04:06:53.933Z,91.72
2022-12-13T04:07:50.531Z,91.82
2022-12-13T04:08:47.239Z,92.52
2022-12-13T04:09:47.666Z,92.80
2022-12-13T04:10:44.246Z,92.07
2022-12-13T04:11:59.751Z,93.13
2022-12-13T04:13:15.055Z,92.39
2022-12-13T04:14:12.331Z,92.23
2022-12-13T04:15:19.083Z,92.35
2022-12-13T04:16:15.803Z,91.50
2022-12-13T04:17:12.371Z,91.86
2022-12-13T04:18:09.034Z,91.96
2022-12-13T04:19:05.704Z,91.60
2022-12-13T04:20:02.339Z,90.74
2022-12-13T04:20:58.956Z,90.88
2022-12-13T04:21:55.549Z,90.87
2022-12-13T04:22:52.154Z,91.07
2022-12-13T04:23:48.805Z,91.87
2022-12-13T04:24:45.391Z,91.77
2022-12-13T04:25:42.941Z,91.71
2022-12-13T04:26:40.758Z,91.63
2022-12-13T04:27:38.097Z,91.54
2022-12-13T04:28:34.727Z,92.35
2022-12-13T04:29:34.907Z,92.39
2022-12-13T04:30:32.129Z,92.04
2022-12-13T04:31:28.796Z,92.46
2022-12-13T04:32:26.871Z,92.21
2022-12-13T04:33:24.852Z,91.87
2022-12-13T04:34:21.517Z,91.84
2022-12-13T04:35:18.412Z,92.42
2022-12-13T04:36:32.165Z,92.07
2022-12-13T04:37:30.362Z,92.99
2022-12-13T04:38:27.583Z,92.74
2022-12-13T04:39:24.150Z,93.09
2022-12-13T04:40:21.921Z,93.01
2022-12-13T04:41:19.480Z,93.16
2022-12-13T04:42:16.443Z,93.06
2022-12-13T04:43:13.127Z,92.99
2022-12-13T04:44:27.892Z,92.04
2022-12-13T04:45:26.067Z,91.74
2022-12-13T04:46:22.820Z,91.72
2022-12-13T04:47:19.441Z,91.25
2022-12-13T04:48:31.314Z,90.61
2022-12-13T04:49:30.152Z,91.57
2022-12-13T04:50:26.938Z,91.26
2022-12-13T04:51:23.846Z,91.79
2022-12-13T04:52:22.329Z,91.82
2022-12-13T04:53:19.435Z,91.82
2022-12-13T04:54:24.600Z,91.80
2022-12-13T04:55:21.295Z,92.06
2022-12-13T04:56:18.161Z,91.85
2022-12-13T04:57:14.892Z,92.02
2022-12-13T04:58:11.777Z,91.16
2022-12-13T04:59:09.125Z,91.55
2022-12-13T05:00:07.102Z,92.09
2022-12-13T05:01:08.181Z,92.15
2022-12-13T05:02:06.311Z,92.63
2022-12-13T05:03:03.475Z,92.63
2022-12-13T05:04:03.329Z,92.59
2022-12-13T05:05:00.437Z,92.86
2022-12-13T05:05:57.025Z,93.13
2022-12-13T05:06:53.608Z,92.63
2022-12-13T05:07:50.254Z,92.52
2022-12-13T05:08:46.888Z,93.01
2022-12-13T05:09:43.475Z,92.33
2022-12-13T05:10:40.322Z,92.55
2022-12-13T05:11:36.926Z,92.90
2022-12-13T05:12:42.178Z,92.90
2022-12-13T05:13:39.330Z,92.45
2022-12-13T05:14:35.915Z,92.81
2022-12-13T05:15:33.655Z,92.82
2022-12-13T05:16:30.361Z,92.67
2022-12-13T05:17:27.013Z,93.09
2022-12-13T05:18:23.790Z,92.99
2022-12-13T05:19:20.447Z,92.70
2022-12-13T05:20:17.073Z,92.45
2022-12-13T05:21:13.684Z,92.12
2022-12-13T05:22:19.845Z,92.32
2022-12-13T05:23:23.114Z,91.88
2022-12-13T05:24:19.800Z,92.17
2022-12-13T05:25:16.707Z,91.81
2022-12-13T05:26:13.455Z,91.76
2022-12-13T05:27:24.881Z,92.15
2022-12-13T05:28:27.811Z,91.94
2022-12-13T05:29:25.449Z,92.30
2022-12-13T05:30:22.013Z,91.65
2022-12-13T05:31:23.288Z,91.47
2022-12-13T05:32:20.719Z,91.55
2022-12-13T05:33:17.360Z,91.64
2022-12-13T05:34:14.080Z,91.42
2022-12-13T05:35:10.901Z,91.34
2022-12-13T05:36:07.920Z,91.62
2022-12-13T05:37:04.582Z,91.92
2022-12-13T05:38:01.412Z,92.14
2022-12-13T05:38:58.000Z,91.84
2022-12-13T05:39:54.637Z,92.07
2022-12-13T05:40:51.229Z,91.71
2022-12-13T05:41:48.124Z,92.15
2022-12-13T05:42:44.705Z,91.96
2022-12-13T05:43:43.021Z,91.84
2022-12-13T05:44:40.225Z,91.92
2022-12-13T05:45:37.204Z,92.27
2022-12-13T05:46:39.885Z,91.69
2022-12-13T05:47:38.169Z,92.43
2022-12-13T05:48:34.802Z,92.56
2022-12-13T05:49:32.255Z,91.66
2022-12-13T05:50:29.149Z,91.65
2022-12-13T05:51:25.878Z,92.03
2022-12-13T05:52:31.335Z,91.58
2022-12-13T05:53:30.645Z,91.85
2022-12-13T05:54:27.986Z,91.44
2022-12-13T05:55:24.624Z,91.70
2022-12-13T05:56:22.614Z,92.07
2022-12-13T05:57:19.972Z,91.87
2022-12-13T05:58:16.768Z,91.82
2022-12-13T05:59:20.021Z,91.66
2022-12-13T06:00:30.006Z,91.47
2022-12-13T06:01:27.392Z,91.88
2022-12-13T06:02:24.368Z,91.78
2022-12-13T06:03:21.373Z,91.69
2022-12-13T06:04:22.540Z,91.79
2022-12-13T06:05:20.041Z,91.54
2022-12-13T06:06:18.243Z,91.28
2022-12-13T06:07:14.902Z,91.19
2022-12-13T06:08:24.268Z,91.32
2022-12-13T06:09:22.113Z,91.12
2022-12-13T06:10:21.798Z,90.71
2022-12-13T06:11:32.157Z,91.06
2022-12-13T06:12:31.693Z,90.88
2022-12-13T06:13:32.014Z,91.06
2022-12-13T06:14:29.285Z,91.12
2022-12-13T06:15:26.230Z,91.52
2022-12-13T06:16:31.612Z,91.47
2022-12-13T06:17:36.227Z,91.47
2022-12-13T06:18:35.480Z,91.48
2022-12-13T06:19:32.254Z,91.43
2022-12-13T06:20:28.892Z,91.37
2022-12-13T06:21:25.607Z,90.55
2022-12-13T06:22:22.168Z,91.14
2022-12-13T06:23:18.809Z,91.49
2022-12-13T06:24:17.119Z,91.56
2022-12-13T06:25:30.844Z,92.02
2022-12-13T06:26:28.514Z,92.01
2022-12-13T06:27:25.151Z,91.69
2022-12-13T06:28:21.787Z,91.87
2022-12-13T06:29:24.226Z,92.55
2022-12-13T06:30:22.014Z,91.93
2022-12-13T06:31:18.671Z,91.66
2022-12-13T06:32:15.427Z,91.61
2022-12-13T06:33:13.355Z,91.64
2022-12-13T06:34:14.581Z,91.95
2022-12-13T06:35:28.989Z,91.47
2022-12-13T06:36:26.694Z,91.78
2022-12-13T06:37:23.243Z,91.46
2022-12-13T06:38:31.611Z,91.54
2022-12-13T06:39:32.701Z,91.88
2022-12-13T06:40:30.765Z,91.25
2022-12-13T06:41:31.994Z,91.20
2022-12-13T06:42:28.782Z,91.18
2022-12-13T06:43:25.375Z,90.81
2022-12-13T06:44:22.186Z,90.76
2022-12-13T06:45:19.009Z,91.14
2022-12-13T06:46:16.028Z,91.39
2022-12-13T06:47:12.966Z,90.67
2022-12-13T06:48:28.970Z,90.94
2022-12-13T06:49:25.666Z,91.10
2022-12-13T06:50:29.136Z,90.12
2022-12-13T06:51:33.242Z,90.02
2022-12-13T06:52:30.105Z,89.74
2022-12-13T06:53:26.763Z,90.32
2022-12-13T06:54:23.363Z,90.06
2022-12-13T06:55:23.591Z,90.68
2022-12-13T06:56:20.831Z,89.99
2022-12-13T06:57:17.565Z,90.06
2022-12-13T06:58:14.170Z,89.67
2022-12-13T06:59:10.917Z,89.72
2022-12-13T07:00:08.409Z,89.80
2022-12-13T07:01:14.577Z,89.93
2022-12-13T07:02:15.533Z,89.34
2022-12-13T07:03:22.541Z,89.18
2022-12-13T07:04:29.741Z,89.29
2022-12-13T07:05:27.658Z,88.82
2022-12-13T07:06:25.581Z,88.39
2022-12-13T07:07:22.878Z,88.34
2022-12-13T07:08:22.380Z,88.02
2022-12-13T07:09:19.563Z,88.29
2022-12-13T07:10:22.149Z,88.20
2022-12-13T07:11:25.196Z,87.53
2022-12-13T07:12:22.241Z,87.60
2022-12-13T07:13:18.807Z,87.36
2022-12-13T07:14:15.847Z,87.98
2022-12-13T07:15:12.442Z,87.56
2022-12-13T07:16:10.384Z,87.98
2022-12-13T07:17:07.026Z,87.64
2022-12-13T07:18:04.200Z,88.30
2022-12-13T07:19:02.128Z,88.38
2022-12-13T07:19:58.918Z,88.60
2022-12-13T07:20:57.816Z,89.44
2022-12-13T07:21:54.442Z,88.77
2022-12-13T07:22:59.243Z,89.19
2022-12-13T07:23:56.179Z,88.66
2022-12-13T07:24:52.932Z,88.78
2022-12-13T07:25:55.534Z,87.11
2022-12-13T07:26:52.243Z,86.49
2022-12-13T07:27:48.887Z,86.72
2022-12-13T07:28:50.093Z,85.49
2022-12-13T07:29:49.612Z,85.65
2022-12-13T07:30:46.913Z,85.46
2022-12-13T07:31:43.626Z,85.74
2022-12-13T07:32:41.709Z,85.84
2022-12-13T07:33:38.765Z,85.47
2022-12-13T07:34:35.686Z,84.78
2022-12-13T07:35:36.976Z,85.14
2022-12-13T07:36:34.342Z,85.30
2022-12-13T07:37:31.282Z,85.38
2022-12-13T07:38:28.479Z,86.05
2022-12-13T07:39:26.341Z,85.64
2022-12-13T07:40:22.973Z,85.27
2022-12-13T07:41:23.732Z,84.86
2022-12-13T07:42:20.839Z,85.35
2022-12-13T07:43:17.847Z,85.04
2022-12-13T07:44:14.631Z,85.17
2022-12-13T07:45:11.341Z,85.96
2022-12-13T07:46:08.381Z,85.86
2022-12-13T07:47:05.090Z,85.31
2022-12-13T07:48:05.855Z,85.26
2022-12-13T07:49:03.431Z,85.91
2022-12-13T07:50:00.108Z,85.78
2022-12-13T07:51:03.997Z,85.28
2022-12-13T07:52:00.661Z,85.45
2022-12-13T07:52:57.342Z,85.70
2022-12-13T07:53:54.015Z,86.28
2022-12-13T07:54:50.743Z,85.63
2022-12-13T07:55:47.500Z,85.57
2022-12-13T07:56:44.411Z,85.38
2022-12-13T07:57:42.614Z,85.83
2022-12-13T07:58:39.496Z,86.56
2022-12-13T07:59:36.122Z,86.50
2022-12-13T08:00:33.440Z,87.10
2022-12-13T08:01:34.639Z,86.93
2022-12-13T08:02:31.704Z,86.38
2022-12-13T08:03:28.807Z,86.53
2022-12-13T08:04:25.627Z,86.02
2022-12-13T08:05:26.681Z,85.72
2022-12-13T08:06:23.836Z,86.22
2022-12-13T08:07:20.494Z,86.75
2022-12-13T08:08:20.042Z,86.79
2022-12-13T08:09:16.641Z,86.46
2022-12-13T08:10:13.273Z,85.73
2022-12-13T08:11:15.412Z,85.22
2022-12-13T08:12:12.026Z,85.55
2022-12-13T08:13:08.724Z,84.65
2022-12-13T08:14:06.344Z,85.00
2022-12-13T08:15:03.191Z,84.51
2022-12-13T08:16:26.338Z,84.88
2022-12-13T08:17:23.345Z,84.91
2022-12-13T08:18:19.957Z,85.03
2022-12-13T08:19:16.588Z,85.45
2022-12-13T08:20:13.548Z,84.88
2022-12-13T08:21:52.687Z,84.36
2022-12-13T08:22:36.344Z,83.89
2022-12-13T08:23:34.267Z,83.87
2022-12-13T08:24:31.321Z,84.26
2022-12-13T08:25:28.077Z,84.07
2022-12-13T08:26:24.972Z,82.85
2022-12-13T08:27:21.709Z,83.87
2022-12-13T08:28:18.540Z,83.75
2022-12-13T08:29:23.052Z,83.91
2022-12-13T08:30:32.151Z,83.48
2022-12-13T08:31:33.787Z,82.83
2022-12-13T08:32:30.775Z,82.98
2022-12-13T08:33:27.542Z,81.80
2022-12-13T08:34:24.143Z,81.34
2022-12-13T08:35:20.790Z,80.77
2022-12-13T08:36:18.495Z,82.29
2022-12-13T08:37:16.700Z,81.38
2022-12-13T08:38:13.848Z,80.83
2022-12-13T08:39:19.569Z,79.54
2022-12-13T08:40:16.406Z,81.12
2022-12-13T08:41:13.940Z,80.94
2022-12-13T08:42:18.798Z,81.20
2022-12-13T08:43:15.798Z,80.60
2022-12-13T08:44:12.393Z,81.60
2022-12-13T08:45:09.580Z,81.94
2022-12-13T08:46:06.761Z,81.07
2022-12-13T08:47:03.420Z,79.69
2022-12-13T08:48:01.187Z,80.21
2022-12-13T08:48:57.887Z,80.86
2022-12-13T08:50:02.354Z,80.19
2022-12-13T08:51:24.590Z,79.14
2022-12-13T08:52:23.710Z,79.81
2022-12-13T08:53:21.055Z,79.67
2022-12-13T08:54:31.711Z,80.38
2022-12-13T08:55:31.774Z,81.24
2022-12-13T08:56:30.133Z,82.28
2022-12-13T08:57:26.765Z,82.08
2022-12-13T08:58:23.451Z,81.51
2022-12-13T08:59:20.148Z,80.45
2022-12-13T09:00:19.386Z,80.46
2022-12-13T09:01:16.217Z,80.81
2022-12-13T09:02:17.276Z,80.84
2022-12-13T09:03:13.920Z,79.84
2022-12-13T09:04:10.586Z,80.10
2022-12-13T09:05:09.273Z,80.85
2022-12-13T09:06:13.814Z,81.15
2022-12-13T09:07:10.387Z,81.78
2022-12-13T09:08:23.708Z,80.76
2022-12-13T09:09:21.871Z,80.32
2022-12-13T09:10:27.512Z,80.78
2022-12-13T09:11:35.003Z,80.85
2022-12-13T09:12:35.023Z,80.94
2022-12-13T09:13:43.563Z,79.70
2022-12-13T09:14:45.393Z,78.95
2022-12-13T09:15:46.307Z,79.66
2022-12-13T09:16:50.447Z,78.52
2022-12-13T09:17:52.492Z,79.58
2022-12-13T09:18:54.720Z,79.96
2022-12-13T09:19:57.962Z,79.96
2022-12-13T09:20:55.440Z,78.01
2022-12-13T09:22:07.871Z,77.20
2022-12-13T09:23:14.314Z,76.21
2022-12-13T09:24:24.170Z,74.53
2022-12-13T09:25:24.018Z,75.74
2022-12-13T09:26:25.602Z,77.07
2022-12-13T09:27:28.232Z,77.24
2022-12-13T09:28:25.522Z,77.39
2022-12-13T09:29:22.182Z,79.28
2022-12-13T09:30:19.283Z,79.08
2022-12-13T09:31:19.426Z,80.43
2022-12-13T09:32:16.259Z,79.61
2022-12-13T09:33:17.642Z,78.36
2022-12-13T09:34:26.859Z,78.76
2022-12-13T09:35:23.607Z,80.48
2022-12-13T09:36:21.504Z,81.28
2022-12-13T09:37:22.748Z,81.92
2022-12-13T09:38:20.409Z,82.36
2022-12-13T09:39:17.199Z,82.34
2022-12-13T09:40:26.061Z,81.28
2022-12-13T09:41:42.522Z,81.00
2022-12-13T09:42:44.995Z,81.89
2022-12-13T09:43:44.084Z,81.66
2022-12-13T09:45:02.185Z,81.21
2022-12-13T09:46:13.304Z,79.77
2022-12-13T09:47:26.191Z,79.24
2022-12-13T09:48:23.545Z,78.97
2022-12-13T09:49:38.469Z,79.48
2022-12-13T09:50:38.766Z,78.69
2022-12-13T09:51:41.461Z,77.26
2022-12-13T09:52:44.479Z,78.00
2022-12-13T09:53:51.532Z,76.53
2022-12-13T09:54:50.136Z,76.48
2022-12-13T09:55:50.880Z,76.78
2022-12-13T09:56:51.401Z,77.50
2022-12-13T09:57:48.760Z,77.19
2022-12-13T09:58:49.279Z,78.44
2022-12-13T09:59:47.596Z,78.03
2022-12-13T10:00:47.485Z,77.86
2022-12-13T10:01:45.487Z,76.72
2022-12-13T10:02:48.380Z,76.70
2022-12-13T10:03:49.206Z,76.89
2022-12-13T10:04:45.899Z,75.47
2022-12-13T10:05:46.053Z,74.96
2022-12-13T10:06:42.788Z,76.74
2022-12-13T10:07:40.257Z,75.09
2022-12-13T10:08:50.380Z,75.55
2022-12-13T10:10:01.603Z,75.50
2022-12-13T10:10:58.377Z,75.61
2022-12-13T10:11:55.846Z,75.45
2022-12-13T10:13:08.716Z,75.47
2022-12-13T10:14:30.020Z,76.52
2022-12-13T10:15:28.580Z,76.62
2022-12-13T10:16:25.179Z,77.20
2022-12-13T10:17:25.745Z,77.29
2022-12-13T10:18:33.824Z,78.40
2022-12-13T10:19:40.541Z,77.32
2022-12-13T10:20:37.720Z,77.96
2022-12-13T10:21:42.932Z,77.67
2022-12-13T10:22:39.533Z,77.31
2022-12-13T10:23:59.811Z,75.53
2022-12-13T10:25:03.868Z,74.74
2022-12-13T10:26:03.297Z,77.44
2022-12-13T10:27:32.146Z,76.82
2022-12-13T10:28:33.466Z,75.87
2022-12-13T10:29:30.081Z,75.46
2022-12-13T10:30:29.161Z,75.20
2022-12-13T10:31:26.204Z,76.38
2022-12-13T10:32:23.093Z,75.71
2022-12-13T10:33:28.987Z,76.03
2022-12-13T10:34:29.915Z,76.43
2022-12-13T10:35:27.929Z,77.51
2022-12-13T10:36:43.789Z,76.50
2022-12-13T10:37:40.452Z,77.96
2022-12-13T10:38:45.564Z,77.99
2022-12-13T10:39:43.634Z,76.88
2022-12-13T10:40:46.744Z,78.07
2022-12-13T10:41:44.470Z,78.27
2022-12-13T10:42:41.095Z,78.33
2022-12-13T10:43:38.076Z,77.76
2022-12-13T10:44:35.488Z,77.07
2022-12-13T10:45:32.161Z,77.79
2022-12-13T10:46:31.268Z,78.38
2022-12-13T10:47:36.461Z,77.68
2022-12-13T10:48:39.910Z,78.63
2022-12-13T10:49:39.420Z,79.13
2022-12-13T10:50:37.099Z,80.47
2022-12-13T10:51:39.964Z,79.84
2022-12-13T10:52:43.162Z,79.29
2022-12-13T10:53:47.390Z,79.02
2022-12-13T10:54:48.523Z,78.90
2022-12-13T10:55:45.545Z,79.23
2022-12-13T10:56:51.018Z,79.79
2022-12-13T10:57:56.935Z,80.73
2022-12-13T10:59:16.987Z,81.17
2022-12-13T11:00:33.682Z,81.83
2022-12-13T11:01:30.521Z,82.86
2022-12-13T11:02:38.360Z,82.63
2022-12-13T11:03:35.019Z,80.74
2022-12-13T11:04:35.304Z,81.83
2022-12-13T11:05:35.619Z,81.92
2022-12-13T11:06:46.746Z,82.56
2022-12-13T11:07:43.323Z,81.78
2022-12-13T11:08:40.146Z,81.13
2022-12-13T11:09:38.936Z,81.29
2022-12-13T11:10:36.517Z,81.38
2022-12-13T11:11:34.948Z,80.47
2022-12-13T11:12:31.729Z,80.06
2022-12-13T11:13:33.516Z,80.80
2022-12-13T11:14:43.221Z,82.58
2022-12-13T11:15:40.353Z,82.74
2022-12-13T11:16:41.485Z,83.24
2022-12-13T11:17:48.116Z,82.21
2022-12-13T11:18:53.018Z,82.30
2022-12-13T11:19:54.012Z,82.07
2022-12-13T11:21:00.456Z,81.70
2022-12-13T11:21:57.319Z,81.75
2022-12-13T11:23:19.675Z,80.14
2022-12-13T11:24:38.420Z,79.61
2022-12-13T11:25:43.709Z,81.95
2022-12-13T11:26:42.932Z,81.72
2022-12-13T11:27:46.174Z,80.18
2022-12-13T11:29:09.224Z,80.70
2022-12-13T11:30:27.359Z,80.94
2022-12-13T11:31:48.851Z,79.66
2022-12-13T11:32:59.268Z,79.53
2022-12-13T11:34:09.174Z,80.24
2022-12-13T11:35:16.358Z,80.98
2022-12-13T11:36:48.578Z,80.08
2022-12-13T11:37:49.330Z,79.19
2022-12-13T11:38:58.188Z,79.04
2022-12-13T11:40:01.679Z,78.60
2022-12-13T11:41:38.633Z,76.31
2022-12-13T11:42:54.161Z,75.90
2022-12-13T11:44:14.055Z,75.49
2022-12-13T11:45:11.716Z,76.37
2022-12-13T11:46:35.136Z,77.84
2022-12-13T11:48:00.645Z,77.79
2022-12-13T11:49:03.079Z,76.80
2022-12-13T11:50:00.639Z,77.74
2022-12-13T11:51:00.103Z,77.58
2022-12-13T11:52:21.897Z,76.68
2022-12-13T11:53:50.675Z,76.78
2022-12-13T11:54:57.687Z,78.04
2022-12-13T11:56:20.267Z,77.85
2022-12-13T11:57:31.658Z,77.83
2022-12-13T11:59:02.913Z,78.89
2022-12-13T12:00:35.425Z,77.29
2022-12-13T12:01:47.771Z,77.47
2022-12-13T12:02:56.815Z,78.83
2022-12-13T12:03:56.865Z,77.33
2022-12-13T12:05:00.496Z,78.10
2022-12-13T12:06:05.938Z,79.45
2022-12-13T12:07:30.683Z,79.52
2022-12-13T12:08:52.851Z,78.38
2022-12-13T12:09:56.239Z,76.68
2022-12-13T12:11:19.400Z,78.61
2022-12-13T12:12:37.248Z,79.79
2022-12-13T12:13:51.621Z,79.69
2022-12-13T12:14:52.660Z,78.42
2022-12-13T12:16:04.236Z,79.34
2022-12-13T12:17:01.130Z,79.74
2022-12-13T12:17:57.951Z,76.21
2022-12-13T12:18:54.676Z,75.94
2022-12-13T12:19:58.919Z,78.75
2022-12-13T12:21:20.638Z,80.33
2022-12-13T12:22:48.054Z,81.34
2022-12-13T12:23:52.552Z,79.52
2022-12-13T12:25:16.814Z,80.72
2022-12-13T12:26:18.556Z,82.26
2022-12-13T12:27:39.927Z,81.11
2022-12-13T12:29:12.283Z,81.42
2022-12-13T12:30:23.195Z,82.19
2022-12-13T12:31:50.923Z,82.23
2022-12-13T12:33:00.826Z,81.92
2022-12-13T12:34:00.228Z,81.17
2022-12-13T12:35:16.545Z,81.69
2022-12-13T12:36:32.019Z,81.57
2022-12-13T12:37:49.293Z,81.39
2022-12-13T12:39:14.397Z,83.21
2022-12-13T12:40:52.182Z,81.77
2022-12-13T12:42:07.981Z,81.86
2022-12-13T12:43:22.111Z,81.82
2022-12-13T12:44:37.097Z,82.37
2022-12-13T12:45:57.192Z,81.36
2022-12-13T12:47:18.050Z,78.80
2022-12-13T12:49:02.167Z,80.64
2022-12-13T12:50:18.782Z,79.67
2022-12-13T12:51:33.846Z,81.82
2022-12-13T12:52:55.201Z,81.72
2022-12-13T12:54:19.051Z,81.79
2022-12-13T12:55:33.688Z,80.95
2022-12-13T12:56:45.603Z,81.77
2022-12-13T12:58:05.076Z,82.71
2022-12-13T12:59:27.343Z,82.12
2022-12-13T13:00:25.128Z,80.99
2022-12-13T13:02:03.196Z,81.29
2022-12-13T13:03:14.515Z,81.85
2022-12-13T13:04:22.295Z,82.18
2022-12-13T13:05:45.084Z,80.61
2022-12-13T13:06:47.782Z,81.10
2022-12-13T13:07:52.813Z,81.42
2022-12-13T13:08:54.985Z,81.32
2022-12-13T13:09:54.948Z,79.85
2022-12-13T13:10:54.017Z,80.54
2022-12-13T13:12:29.377Z,79.86
2022-12-13T13:13:49.873Z,81.67
2022-12-13T13:14:46.549Z,81.39
2022-12-13T13:15:52.437Z,79.82
2022-12-13T13:16:49.205Z,80.18
2022-12-13T13:17:46.935Z,81.17
2022-12-13T13:18:52.020Z,82.41
2022-12-13T13:19:50.555Z,81.03
2022-12-13T13:21:25.891Z,81.24
2022-12-13T13:22:44.368Z,81.28